createdAt,value
2022-12-20T00:02:26.715Z,-2.97
2022-12-20T00:05:29.222Z,-2.95
2022-12-20T00:08:31.508Z,-2.92
2022-12-20T00:11:33.673Z,-2.93
2022-12-20T00:14:35.748Z,-2.94
2022-12-20T00:17:37.876Z,-2.92
2022-12-20T00:20:40.111Z,-2.93
2022-12-20T00:23:42.657Z,-2.97
2022-12-20T00:26:44.765Z,-2.95
2022-12-20T00:29:46.905Z,-2.94
2022-12-20T00:32:48.931Z,-2.94
2022-12-20T00:35:52.439Z,-3.00
2022-12-20T00:38:56.752Z,-3.03
2022-12-20T00:41:58.818Z,-3.02
2022-12-20T00:45:00.923Z,-3.00
2022-12-20T00:48:02.977Z,-2.99
2022-12-20T00:51:11.517Z,-3.01
2022-12-20T00:54:13.528Z,-3.01
2022-12-20T00:57:15.572Z,-3.03
2022-12-20T01:00:18.013Z,-3.05
2022-12-20T01:03:20.871Z,-3.05
2022-12-20T01:06:25.221Z,-3.02
2022-12-20T01:09:27.250Z,-2.98
2022-12-20T01:12:29.744Z,-2.98
2022-12-20T01:15:31.788Z,-3.03
2022-12-20T01:18:34.015Z,-3.04
2022-12-20T01:21:36.350Z,-3.05
2022-12-20T01:24:38.396Z,-3.05
2022-12-20T01:27:40.495Z,-3.06
2022-12-20T01:30:42.600Z,-3.05
2022-12-20T01:33:46.835Z,-3.05
2022-12-20T01:36:49.889Z,-3.03
2022-12-20T01:39:52.096Z,-3.08
2022-12-20T01:42:54.495Z,-3.09
2022-12-20T01:45:56.683Z,-3.10
2022-12-20T01:49:08.438Z,-3.06
2022-12-20T01:52:33.423Z,-3.12
2022-12-20T01:55:35.969Z,-3.17
2022-12-20T01:58:39.575Z,-3.14
2022-12-20T02:01:44.269Z,-3.10
2022-12-20T02:04:46.822Z,-3.08
2022-12-20T02:07:56.783Z,-3.07
2022-12-20T02:11:16.429Z,-3.03
2022-12-20T02:14:36.122Z,-3.04
2022-12-20T02:17:58.984Z,-3.01
2022-12-20T02:21:17.705Z,-2.95
2022-12-20T02:24:47.937Z,-2.97
2022-12-20T02:28:13.921Z,-2.93
2022-12-20T02:31:21.943Z,-2.93
2022-12-20T02:34:26.637Z,-2.92
2022-12-20T02:37:28.743Z,-2.93
2022-12-20T02:40:43.492Z,-2.95
2022-12-20T02:44:11.735Z,-2.95
2022-12-20T02:47:20.477Z,-2.93
2022-12-20T02:50:36.403Z,-2.98
2022-12-20T02:53:41.296Z,-2.98
2022-12-20T02:57:37.180Z,-2.94
2022-12-20T03:00:43.903Z,-2.93
2022-12-20T03:03:46.002Z,-2.95
2022-12-20T03:07:02.954Z,-2.93
2022-12-20T03:10:05.360Z,-2.93
2022-12-20T03:13:07.516Z,-2.89
2022-12-20T03:16:11.964Z,-2.87
2022-12-20T03:19:14.247Z,-2.89
2022-12-20T03:22:16.332Z,-2.90
2022-12-20T03:25:18.481Z,-2.92
2022-12-20T03:28:21.053Z,-2.91
2022-12-20T03:31:23.295Z,-2.91
2022-12-20T03:34:30.179Z,-2.90
2022-12-20T03:37:32.404Z,-2.88
2022-12-20T03:40:36.719Z,-2.87
2022-12-20T03:43:38.794Z,-2.89
2022-12-20T03:46:41.332Z,-2.89
2022-12-20T03:49:43.364Z,-2.88
2022-12-20T03:52:46.804Z,-2.83
2022-12-20T03:55:48.837Z,-2.83
2022-12-20T03:58:51.288Z,-2.82
2022-12-20T04:01:53.467Z,-2.83
2022-12-20T04:04:55.748Z,-2.87
2022-12-20T04:07:57.959Z,-2.88
2022-12-20T04:11:18.071Z,-2.87
2022-12-20T04:14:46.156Z,-2.86
2022-12-20T04:17:48.809Z,-2.84
2022-12-20T04:20:55.406Z,-2.84
2022-12-20T04:24:04.199Z,-2.83
2022-12-20T04:27:18.369Z,-2.83
2022-12-20T04:30:20.615Z,-2.82
2022-12-20T04:33:24.034Z,-2.80
2022-12-20T04:36:26.436Z,-2.80
2022-12-20T04:39:31.290Z,-2.82
2022-12-20T04:42:50.034Z,-2.83
2022-12-20T04:45:56.430Z,-2.80
2022-12-20T04:49:00.122Z,-2.83
2022-12-20T04:52:22.364Z,-2.82
2022-12-20T04:55:25.127Z,-2.80
2022-12-20T04:58:28.053Z,-2.81
2022-12-20T05:01:30.328Z,-2.79
2022-12-20T05:04:37.385Z,-2.79
2022-12-20T05:07:40.851Z,-2.80
2022-12-20T05:10:43.041Z,-2.83
2022-12-20T05:13:45.193Z,-2.83
2022-12-20T05:16:48.356Z,-2.80
2022-12-20T05:19:50.602Z,-2.83
2022-12-20T05:23:12.029Z,-2.86
2022-12-20T05:26:20.086Z,-2.87
2022-12-20T05:29:24.096Z,-2.86
2022-12-20T05:32:26.571Z,-2.86
2022-12-20T05:35:29.859Z,-2.86
2022-12-20T05:38:39.710Z,-2.87
2022-12-20T05:41:47.825Z,-2.87
2022-12-20T05:44:49.856Z,-2.85
2022-12-20T05:47:52.151Z,-2.85
2022-12-20T05:50:54.510Z,-2.83
2022-12-20T05:54:01.909Z,-2.80
2022-12-20T05:57:16.879Z,-2.79
2022-12-20T06:00:19.142Z,-2.79
2022-12-20T06:03:23.447Z,-2.79
2022-12-20T06:06:26.465Z,-2.79
2022-12-20T06:09:30.558Z,-2.85
2022-12-20T06:12:40.490Z,-2.84
2022-12-20T06:15:42.598Z,-2.86
2022-12-20T06:18:44.678Z,-2.87
2022-12-20T06:21:48.318Z,-2.85
2022-12-20T06:24:52.200Z,-2.82
2022-12-20T06:27:59.195Z,-2.79
2022-12-20T06:31:01.290Z,-2.78
2022-12-20T06:34:14.225Z,-2.79
2022-12-20T06:37:17.453Z,-2.81
2022-12-20T06:40:19.797Z,-2.83
2022-12-20T06:43:21.874Z,-2.85
2022-12-20T06:46:24.054Z,-2.80
2022-12-20T06:49:26.182Z,-2.77
2022-12-20T06:52:28.678Z,-2.75
2022-12-20T06:55:30.723Z,-2.78
2022-12-20T06:58:32.956Z,-2.75
2022-12-20T07:01:35.259Z,-2.75
2022-12-20T07:04:38.086Z,-2.76
2022-12-20T07:07:44.897Z,-2.74
2022-12-20T07:10:47.967Z,-2.72
2022-12-20T07:13:50.587Z,-2.67
2022-12-20T07:16:52.722Z,-2.70
2022-12-20T07:19:54.857Z,-2.71
2022-12-20T07:22:57.048Z,-2.73
2022-12-20T07:26:01.034Z,-2.70
2022-12-20T07:29:03.158Z,-2.65
2022-12-20T07:32:05.569Z,-2.62
2022-12-20T07:35:08.204Z,-2.58
2022-12-20T07:38:10.226Z,-2.61
2022-12-20T07:41:18.519Z,-2.62
2022-12-20T07:44:20.709Z,-2.57
2022-12-20T07:47:23.130Z,-2.54
2022-12-20T07:50:26.154Z,-2.51
2022-12-20T07:53:32.143Z,-2.53
2022-12-20T07:56:41.136Z,-2.45
2022-12-20T07:59:50.483Z,-2.46
2022-12-20T08:03:15.902Z,-2.49
2022-12-20T08:06:18.984Z,-2.45
2022-12-20T08:09:21.036Z,-2.41
2022-12-20T08:12:23.853Z,-2.42
2022-12-20T08:15:28.918Z,-2.36
2022-12-20T08:18:32.000Z,-2.30
2022-12-20T08:21:34.169Z,-2.29
2022-12-20T08:24:36.276Z,-2.26
2022-12-20T08:27:38.431Z,-2.21
2022-12-20T08:30:40.575Z,-2.20
2022-12-20T08:33:42.899Z,-2.19
2022-12-20T08:36:45.802Z,-2.16
2022-12-20T08:39:47.862Z,-2.10
2022-12-20T08:42:49.949Z,-2.07
2022-12-20T08:45:54.673Z,-2.10
2022-12-20T08:48:56.719Z,-2.10
2022-12-20T08:51:58.799Z,-2.11
2022-12-20T08:55:01.990Z,-2.09
2022-12-20T08:58:04.661Z,-2.10
2022-12-20T09:01:09.397Z,-2.12
2022-12-20T09:04:12.280Z,-2.11
2022-12-20T09:07:14.500Z,-2.08
2022-12-20T09:10:16.671Z,-2.15
2022-12-20T09:13:18.872Z,-2.13
2022-12-20T09:16:24.016Z,-2.06
2022-12-20T09:19:26.161Z,-2.07
2022-12-20T09:22:30.162Z,-2.10
2022-12-20T09:25:33.403Z,-2.08
2022-12-20T09:28:35.594Z,-2.08
2022-12-20T09:31:37.934Z,-2.04
2022-12-20T09:34:40.213Z,-2.05
2022-12-20T09:37:42.265Z,-2.04
2022-12-20T09:40:51.212Z,-2.06
2022-12-20T09:43:53.929Z,-2.10
2022-12-20T09:47:10.718Z,-2.12
2022-12-20T09:50:18.053Z,-2.13
2022-12-20T09:53:36.475Z,-2.11
2022-12-20T09:56:47.122Z,-2.01
2022-12-20T09:59:49.991Z,-1.96
2022-12-20T10:03:08.654Z,-1.98
2022-12-20T10:06:22.796Z,-2.10
2022-12-20T10:09:38.293Z,-2.04
2022-12-20T10:13:08.305Z,-2.03
2022-12-20T10:16:13.436Z,-2.08
2022-12-20T10:19:30.441Z,-2.06
2022-12-20T10:22:46.534Z,-2.01
2022-12-20T10:25:50.843Z,-1.94
2022-12-20T10:28:54.673Z,-1.89
2022-12-20T10:32:01.174Z,-1.89
2022-12-20T10:35:26.963Z,-1.84
2022-12-20T10:38:45.575Z,-1.85
2022-12-20T10:41:50.204Z,-1.80
2022-12-20T10:44:53.195Z,-1.82
2022-12-20T10:48:00.327Z,-1.84
2022-12-20T10:51:16.966Z,-1.88
2022-12-20T10:54:46.384Z,-1.84
2022-12-20T10:57:48.439Z,-1.87
2022-12-20T11:00:50.654Z,-1.87
2022-12-20T11:04:07.883Z,-1.88
2022-12-20T11:07:28.763Z,-1.81
2022-12-20T11:10:30.946Z,-1.85
2022-12-20T11:13:33.057Z,-1.81
2022-12-20T11:16:40.597Z,-1.78
2022-12-20T11:20:21.119Z,-1.75
2022-12-20T11:23:42.055Z,-1.71
2022-12-20T11:26:58.017Z,-1.73
2022-12-20T11:30:24.603Z,-1.84
2022-12-20T11:34:02.107Z,-1.86
2022-12-20T11:37:19.720Z,-1.94
2022-12-20T11:40:28.287Z,-1.92
2022-12-20T11:44:22.657Z,-1.87
2022-12-20T11:47:21.979Z,-1.87
2022-12-20T11:50:56.268Z,-1.83
2022-12-20T11:54:08.616Z,-1.93
2022-12-20T11:58:08.802Z,-1.91
2022-12-20T12:01:14.203Z,-1.88
2022-12-20T12:04:30.501Z,-1.91
2022-12-20T12:07:35.723Z,-1.96
2022-12-20T12:10:42.986Z,-1.95
2022-12-20T12:13:45.497Z,-1.93
2022-12-20T12:16:54.254Z,-1.99
2022-12-20T12:20:09.605Z,-2.05
2022-12-20T12:23:23.352Z,-2.03
2022-12-20T12:26:28.778Z,-2.04
2022-12-20T12:29:33.750Z,-2.08
2022-12-20T12:32:49.393Z,-2.10
2022-12-20T12:35:51.422Z,-2.07
2022-12-20T12:39:12.985Z,-2.08
2022-12-20T12:42:52.436Z,-2.13
2022-12-20T12:46:00.291Z,-2.11
2022-12-20T12:49:17.845Z,-2.10
2022-12-20T12:52:35.595Z,-2.11
2022-12-20T12:55:49.522Z,-2.10
2022-12-20T12:59:06.893Z,-2.09
2022-12-20T13:02:15.563Z,-2.09
2022-12-20T13:05:31.187Z,-2.15
2022-12-20T13:09:04.317Z,-2.19
2022-12-20T13:12:37.119Z,-2.18
2022-12-20T13:15:41.989Z,-2.24
2022-12-20T13:19:02.983Z,-2.26
2022-12-20T13:22:22.211Z,-2.23
2022-12-20T13:25:31.666Z,-2.18
2022-12-20T13:28:33.686Z,-2.11
2022-12-20T13:31:36.209Z,-2.08
2022-12-20T13:34:58.386Z,-2.16
2022-12-20T13:38:12.310Z,-2.20
2022-12-20T13:41:26.818Z,-2.18
2022-12-20T13:44:53.309Z,-2.16
2022-12-20T13:48:07.699Z,-2.18
2022-12-20T13:51:23.003Z,-2.18
2022-12-20T13:54:27.384Z,-2.21
2022-12-20T13:57:45.386Z,-2.26
2022-12-20T14:00:49.439Z,-2.28
2022-12-20T14:03:53.667Z,-2.28
2022-12-20T14:07:01.751Z,-2.30
2022-12-20T14:10:17.613Z,-2.35
2022-12-20T14:13:26.049Z,-2.33
2022-12-20T14:16:31.050Z,-2.35
2022-12-20T14:19:33.147Z,-2.34
2022-12-20T14:22:36.886Z,-2.36
2022-12-20T14:25:45.032Z,-2.40
2022-12-20T14:28:50.184Z,-2.43
2022-12-20T14:31:52.358Z,-2.48
2022-12-20T14:34:54.756Z,-2.50
2022-12-20T14:38:00.432Z,-2.46
2022-12-20T14:41:02.595Z,-2.50
2022-12-20T14:44:07.881Z,-2.52
2022-12-20T14:47:21.513Z,-2.48
2022-12-20T14:50:35.384Z,-2.51
2022-12-20T14:53:40.373Z,-2.49
2022-12-20T14:56:47.226Z,-2.52
2022-12-20T15:00:13.990Z,-2.57
2022-12-20T15:03:18.777Z,-2.61
2022-12-20T15:06:42.755Z,-2.62
2022-12-20T15:09:44.869Z,-2.65
2022-12-20T15:12:47.098Z,-2.67
2022-12-20T15:15:49.295Z,-2.67
2022-12-20T15:18:56.695Z,-2.64
2022-12-20T15:21:58.913Z,-2.62
2022-12-20T15:25:00.977Z,-2.58
2022-12-20T15:28:03.105Z,-2.55
2022-12-20T15:31:05.400Z,-2.53
2022-12-20T15:34:15.408Z,-2.58
2022-12-20T15:37:18.920Z,-2.62
2022-12-20T15:40:21.366Z,-2.62
2022-12-20T15:43:25.021Z,-2.58
2022-12-20T15:46:27.910Z,-2.55
2022-12-20T15:49:31.951Z,-2.56
2022-12-20T15:52:34.130Z,-2.57
2022-12-20T15:55:39.911Z,-2.58
2022-12-20T15:58:42.362Z,-2.60
2022-12-20T16:01:44.531Z,-2.58
2022-12-20T16:04:46.664Z,-2.53
2022-12-20T16:07:48.781Z,-2.53
2022-12-20T16:10:52.265Z,-2.51
2022-12-20T16:13:56.288Z,-2.47
2022-12-20T16:16:58.529Z,-2.48
2022-12-20T16:20:00.898Z,-2.51
2022-12-20T16:23:04.340Z,-2.54
2022-12-20T16:26:06.710Z,-2.58
2022-12-20T16:29:08.815Z,-2.58
2022-12-20T16:32:16.836Z,-2.57
2022-12-20T16:35:27.733Z,-2.55
2022-12-20T16:38:29.835Z,-2.55
2022-12-20T16:41:33.247Z,-2.51
2022-12-20T16:44:35.323Z,-2.49
2022-12-20T16:47:37.364Z,-2.51
2022-12-20T16:50:43.588Z,-2.51
2022-12-20T16:54:17.305Z,-2.51
2022-12-20T16:57:09.416Z,-2.51
2022-12-20T17:00:18.233Z,-2.49
2022-12-20T17:03:20.499Z,-2.47
2022-12-20T17:06:22.718Z,-2.47
2022-12-20T17:09:24.762Z,-2.49
2022-12-20T17:12:27.014Z,-2.48
2022-12-20T17:15:32.066Z,-2.48
2022-12-20T17:18:34.173Z,-2.50
2022-12-20T17:25:00.381Z,-2.48
2022-12-20T17:28:02.504Z,-2.47
2022-12-20T17:31:26.191Z,-2.47
2022-12-20T17:34:30.480Z,-2.48
2022-12-20T17:37:32.516Z,-2.46
2022-12-20T17:40:35.907Z,-2.45
2022-12-20T17:43:37.950Z,-2.48
2022-12-20T17:46:40.031Z,-2.49
2022-12-20T17:49:42.103Z,-2.48
2022-12-20T17:52:45.996Z,-2.51
2022-12-20T17:55:48.026Z,-2.50
2022-12-20T17:58:50.299Z,-2.47
2022-12-20T18:01:52.754Z,-2.48
2022-12-20T18:04:55.008Z,-2.47
2022-12-20T18:07:57.158Z,-2.45
2022-12-20T18:10:59.205Z,-2.43
2022-12-20T18:14:03.848Z,-2.43
2022-12-20T18:17:06.102Z,-2.42
2022-12-20T18:20:10.051Z,-2.39
2022-12-20T18:23:12.362Z,-2.38
2022-12-20T18:26:17.479Z,-2.40
2022-12-20T18:29:19.699Z,-2.41
2022-12-20T18:32:22.050Z,-2.41
2022-12-20T18:35:24.426Z,-2.41
2022-12-20T18:38:26.655Z,-2.40
2022-12-20T18:41:31.033Z,-2.41
2022-12-20T18:44:36.097Z,-2.40
2022-12-20T18:47:38.872Z,-2.38
2022-12-20T18:50:41.108Z,-2.37
2022-12-20T18:53:45.465Z,-2.38
2022-12-20T18:56:49.628Z,-2.38
2022-12-20T18:59:52.011Z,-2.43
2022-12-20T19:02:59.656Z,-2.43
2022-12-20T19:06:05.553Z,-2.46
2022-12-20T19:09:10.525Z,-2.48
2022-12-20T19:12:12.999Z,-2.45
2022-12-20T19:15:15.389Z,-2.43
2022-12-20T19:18:17.879Z,-2.42
2022-12-20T19:24:50.492Z,-2.42
2022-12-20T19:27:52.762Z,-2.43
2022-12-20T19:30:56.344Z,-2.47
2022-12-20T19:34:05.654Z,-2.51
2022-12-20T19:37:08.162Z,-2.50
2022-12-20T19:40:12.099Z,-2.50
2022-12-20T19:43:14.189Z,-2.46
2022-12-20T19:46:16.759Z,-2.48
2022-12-20T19:49:21.363Z,-2.47
2022-12-20T19:52:28.409Z,-2.45
2022-12-20T19:55:31.313Z,-2.43
2022-12-20T19:58:33.879Z,-2.48
2022-12-20T20:01:36.226Z,-2.48
2022-12-20T20:04:38.946Z,-2.49
2022-12-20T20:07:41.499Z,-2.48
2022-12-20T20:10:45.113Z,-2.46
2022-12-20T20:13:48.053Z,-2.45
2022-12-20T20:16:50.902Z,-2.44
2022-12-20T20:19:53.063Z,-2.43
2022-12-20T20:22:55.331Z,-2.42
2022-12-20T20:25:59.077Z,-2.42
2022-12-20T20:29:02.379Z,-2.41
2022-12-20T20:32:05.507Z,-2.42
2022-12-20T20:35:09.237Z,-2.42
2022-12-20T20:38:12.416Z,-2.45
2022-12-20T20:41:15.095Z,-2.45
2022-12-20T20:44:17.212Z,-2.44
2022-12-20T20:47:20.810Z,-2.43
2022-12-20T20:50:22.965Z,-2.42
2022-12-20T20:53:29.508Z,-2.38
2022-12-20T20:56:36.500Z,-2.40
2022-12-20T20:59:38.562Z,-2.40
2022-12-20T21:02:40.882Z,-2.40
2022-12-20T21:09:07.152Z,-2.44
2022-12-20T21:12:09.467Z,-2.44
2022-12-20T21:15:22.311Z,-2.47
2022-12-20T21:18:24.925Z,-2.47
2022-12-20T21:21:27.407Z,-2.45
2022-12-20T21:24:29.705Z,-2.43
2022-12-20T21:27:31.910Z,-2.41
2022-12-20T21:30:34.964Z,-2.38
2022-12-20T21:33:37.741Z,-2.40
2022-12-20T21:36:39.753Z,-2.39
2022-12-20T21:39:41.845Z,-2.43
2022-12-20T21:42:43.925Z,-2.43
2022-12-20T21:45:50.546Z,-2.42
2022-12-20T21:48:52.705Z,-2.45
2022-12-20T21:51:56.576Z,-2.48
2022-12-20T21:54:58.565Z,-2.52
2022-12-20T21:58:00.617Z,-2.54
2022-12-20T22:01:08.490Z,-2.51
2022-12-20T22:04:12.180Z,-2.52
2022-12-20T22:07:14.314Z,-2.49
2022-12-20T22:10:16.419Z,-2.48
2022-12-20T22:13:18.488Z,-2.48
2022-12-20T22:16:21.595Z,-2.50
2022-12-20T22:19:23.743Z,-2.53
2022-12-20T22:22:26.210Z,-2.51
2022-12-20T22:25:28.471Z,-2.54
2022-12-20T22:28:30.654Z,-2.53
2022-12-20T22:31:33.760Z,-2.54
2022-12-20T22:34:35.814Z,-2.52
2022-12-20T22:37:37.889Z,-2.55
2022-12-20T22:40:39.901Z,-2.54
2022-12-20T22:43:44.699Z,-2.53
2022-12-20T22:50:06.407Z,-2.48
2022-12-20T22:53:08.375Z,-2.47
2022-12-20T22:56:11.237Z,-2.47
2022-12-20T22:59:13.268Z,-2.49
2022-12-20T23:02:15.425Z,-2.50
2022-12-20T23:05:17.517Z,-2.52
2022-12-20T23:08:19.919Z,-2.49
2022-12-20T23:11:44.612Z,-2.46
2022-12-20T23:15:05.191Z,-2.45
2022-12-20T23:18:07.348Z,-2.47
2022-12-20T23:21:27.995Z,-2.48
2022-12-20T23:24:30.116Z,-2.45
2022-12-20T23:27:32.190Z,-2.43
2022-12-20T23:30:34.242Z,-2.44
2022-12-20T23:33:36.774Z,-2.42
2022-12-20T23:36:38.822Z,-2.42
2022-12-20T23:39:40.814Z,-2.40
2022-12-20T23:42:43.095Z,-2.42
2022-12-20T23:45:45.335Z,-2.43
2022-12-20T23:48:47.602Z,-2.46
2022-12-20T23:51:49.870Z,-2.48
2022-12-20T23:54:51.817Z,-2.49
2022-12-20T23:57:53.844Z,-2.49
